Time;durP1;ratioP1;P1;durP2;ratioP2;P2;SDS_P1;SDS_P2;PMS_P1;PMS_P2;Temp;Humidity;BMP_temperature;BMP_pressure;BME280_temperature;BME280_humidity;BME280_pressure;Samples;Min_cycle;Max_cycle;Signal;HPM_P1;HPM_P2
2023/06/15 00:02:00;;;;;;;4.80;4.38;;;;;;;-141.84;58.38;20891.13;4991224;28;20207;-59
2023/06/15 00:04:29;;;;;;;6.63;4.80;;;;;;;-141.84;58.82;20868.78;4991033;28;20324;-59
2023/06/15 00:06:57;;;;;;;5.50;5.00;;;;;;;-141.84;59.28;20854.53;4975683;28;20211;-60
2023/06/15 00:09:26;;;;;;;5.53;5.03;;;;;;;-141.84;58.94;20866.75;4975215;28;20295;-60
2023/06/15 00:11:56;;;;;;;6.22;4.85;;;;;;;-141.84;58.96;20876.91;4975346;28;20251;-59
2023/06/15 00:14:24;;;;;;;6.00;4.50;;;;;;;-141.84;59.55;20773.22;4975014;28;20311;-59
2023/06/15 00:16:53;;;;;;;6.15;5.00;;;;;;;-141.84;60.20;20801.69;4975076;28;20212;-59
2023/06/15 00:19:21;;;;;;;5.53;4.93;;;;;;;-141.84;59.96;20830.16;4975246;28;20228;-60
2023/06/15 00:21:53;;;;;;;6.32;4.70;;;;;;;-141.84;60.87;20832.19;4959494;28;20296;-60
2023/06/15 00:24:22;;;;;;;5.18;4.68;;;;;;;-141.84;61.54;20775.25;4956157;29;20335;-60
2023/06/15 00:26:50;;;;;;;5.38;4.80;;;;;;;-141.84;61.62;20754.94;4955397;29;20695;-58
2023/06/15 00:29:20;;;;;;;7.60;5.50;;;;;;;-141.84;62.16;20730.53;4955855;29;20307;-59
2023/06/15 00:31:49;;;;;;;5.55;4.55;;;;;;;-141.84;62.04;20742.75;4955715;29;20205;-60
2023/06/15 00:34:17;;;;;;;6.55;5.28;;;;;;;-141.84;61.27;20781.38;4955673;29;20247;-60
2023/06/15 00:36:46;;;;;;;5.95;5.10;;;;;;;-141.84;61.37;20761.03;4955346;29;20641;-59
2023/06/15 00:39:14;;;;;;;5.53;4.80;;;;;;;-141.84;62.16;20732.56;4961837;28;20672;-59
2023/06/15 00:41:44;;;;;;;5.35;4.85;;;;;;;-141.84;62.55;20744.78;4974692;28;20254;-60
2023/06/15 00:44:12;;;;;;;6.15;4.60;;;;;;;-141.84;63.07;20712.25;4974679;28;20287;-59
2023/06/15 00:46:42;;;;;;;5.22;4.45;;;;;;;-141.84;63.07;20730.53;4974749;28;20295;-59
2023/06/15 00:49:11;;;;;;;6.47;4.70;;;;;;;-141.84;63.19;20754.94;4974517;28;20644;-59
2023/06/15 00:51:41;;;;;;;5.15;4.65;;;;;;;-141.84;62.94;20734.59;4974503;28;20319;-59
2023/06/15 00:54:12;;;;;;;5.13;4.72;;;;;;;-141.84;63.60;20708.19;4974585;28;20224;-59
2023/06/15 00:56:40;;;;;;;7.32;4.97;;;;;;;-141.84;64.20;20716.31;4974938;28;20190;-59
2023/06/15 00:59:09;;;;;;;5.47;4.97;;;;;;;-141.84;63.88;20673.63;4985233;28;20238;-59
2023/06/15 01:01:37;;;;;;;8.07;5.07;;;;;;;-141.84;64.17;20683.78;4993787;28;20307;-59
2023/06/15 01:04:07;;;;;;;6.18;4.45;;;;;;;-141.84;64.88;20598.41;4993718;28;20667;-60
2023/06/15 01:06:41;;;;;;;5.10;4.70;;;;;;;-141.84;64.86;20667.53;4978385;28;20196;-60
2023/06/15 01:09:12;;;;;;;7.28;4.70;;;;;;;-141.84;65.22;20637.03;4974046;28;20204;-59
2023/06/15 01:11:41;;;;;;;7.50;5.07;;;;;;;-141.84;64.99;20624.84;4974145;28;20195;-60
2023/06/15 01:14:09;;;;;;;5.63;4.53;;;;;;;-141.84;65.08;20637.03;4974232;28;20319;-59
2023/06/15 01:16:41;;;;;;;5.38;4.88;;;;;;;-141.84;64.07;20675.66;4969137;28;20303;-59
2023/06/15 01:19:39;;;;;;;6.57;4.90;;;;;;;-141.84;64.38;20632.97;4954692;29;20193;-59
2023/06/15 01:22:19;;;;;;;6.57;5.30;;;;;;;-141.84;64.40;20643.13;4954633;29;20205;-59
2023/06/15 01:25:03;;;;;;;5.90;5.32;;;;;;;-141.84;64.43;20649.22;4954754;29;20239;-59
2023/06/15 01:27:34;;;;;;;5.30;4.80;;;;;;;-141.84;64.09;20663.47;4954679;29;20259;-59
2023/06/15 01:30:07;;;;;;;6.40;5.10;;;;;;;-141.84;63.75;20683.78;4954926;29;20199;-59
2023/06/15 01:32:36;;;;;;;8.68;4.90;;;;;;;-141.84;64.49;20661.44;4970300;28;20204;-59
2023/06/15 01:35:05;;;;;;;5.80;4.75;;;;;;;-141.84;64.61;20659.38;4973530;28;20640;-59
2023/06/15 01:37:34;;;;;;;5.25;4.78;;;;;;;-141.84;64.02;20671.59;4973900;28;20295;-59
2023/06/15 01:40:04;;;;;;;5.18;4.68;;;;;;;-141.84;64.32;20663.47;4973574;28;20735;-58
2023/06/15 01:42:35;;;;;;;5.85;4.95;;;;;;;-141.84;64.76;20647.19;4973729;28;20290;-59
2023/06/15 01:45:04;;;;;;;6.22;4.90;;;;;;;-141.84;65.02;20653.28;4973427;28;20267;-59
2023/06/15 01:47:33;;;;;;;4.97;4.55;;;;;;;-141.84;64.76;20655.31;4973629;28;20204;-59
2023/06/15 01:50:03;;;;;;;6.27;4.80;;;;;;;-141.84;64.83;20630.94;4973388;28;20272;-59
2023/06/15 01:52:31;;;;;;;5.55;4.75;;;;;;;-141.84;65.74;20608.56;4973398;28;20220;-59
2023/06/15 01:55:00;;;;;;;5.55;5.05;;;;;;;-141.84;65.72;20663.47;4973254;28;20338;-60
2023/06/15 01:57:29;;;;;;;5.10;4.60;;;;;;;-141.84;65.46;20630.94;4973352;28;20254;-60
2023/06/15 02:00:10;;;;;;;5.40;4.90;;;;;;;-141.84;65.91;20614.66;4991441;28;20643;-59
2023/06/15 02:02:39;;;;;;;6.07;5.47;;;;;;;-141.84;65.82;20606.53;4992698;28;20188;-59
2023/06/15 02:05:09;;;;;;;5.40;4.90;;;;;;;-141.84;66.47;20618.72;4988974;28;20212;-59
2023/06/15 02:07:37;;;;;;;5.90;4.77;;;;;;;-141.84;66.68;20602.47;4972721;28;20211;-59
2023/06/15 02:10:07;;;;;;;5.90;4.90;;;;;;;-141.84;67.37;20600.44;4973159;28;20356;-59
2023/06/15 02:12:35;;;;;;;5.60;4.83;;;;;;;-141.84;67.51;20612.63;4971776;28;20203;-59
2023/06/15 02:15:05;;;;;;;5.80;5.20;;;;;;;-141.84;67.06;20606.53;4954276;28;20311;-60
2023/06/15 02:17:39;;;;;;;5.53;5.03;;;;;;;-141.84;67.12;20598.41;4972857;28;20561;-60
2023/06/15 02:20:10;;;;;;;6.00;5.10;;;;;;;-141.84;66.89;20624.84;4972942;28;20200;-59
2023/06/15 02:22:39;;;;;;;7.57;5.10;;;;;;;-141.84;66.93;20618.72;4972910;28;20239;-60
2023/06/15 02:25:09;;;;;;;5.53;5.00;;;;;;;-141.84;67.04;20630.94;4972523;28;20204;-59
2023/06/15 02:27:37;;;;;;;5.07;4.57;;;;;;;-141.84;66.95;20602.47;4972860;28;20210;-58
2023/06/15 02:30:07;;;;;;;5.40;4.70;;;;;;;-141.84;67.19;20602.47;4972552;28;20287;-58
2023/06/15 02:32:39;;;;;;;5.60;4.97;;;;;;;-141.84;67.67;20598.41;4972817;28;20295;-60
2023/06/15 02:35:11;;;;;;;5.50;5.03;;;;;;;-141.84;68.17;20559.78;4972473;28;20612;-60
2023/06/15 02:37:40;;;;;;;6.03;5.43;;;;;;;-141.84;68.89;20525.22;4972717;28;20243;-60
2023/06/15 02:40:10;;;;;;;6.45;5.25;;;;;;;-141.84;69.17;20567.91;4972580;28;20312;-59
2023/06/15 02:42:39;;;;;;;5.97;5.45;;;;;;;-141.84;68.69;20596.38;4972500;28;20189;-60
2023/06/15 02:45:09;;;;;;;5.53;5.03;;;;;;;-141.84;69.20;20549.63;4971996;28;20316;-59
2023/06/15 02:47:40;;;;;;;6.18;5.30;;;;;;;-141.84;68.57;20569.94;4972477;28;20211;-59
2023/06/15 02:50:10;;;;;;;6.90;5.15;;;;;;;-141.84;68.38;20590.28;4972498;28;20207;-60
2023/06/15 02:52:40;;;;;;;5.45;4.95;;;;;;;-141.84;68.89;20569.94;4972470;28;20235;-59
2023/06/15 02:55:09;;;;;;;6.10;5.50;;;;;;;-141.84;69.25;20565.88;4972289;28;20575;-59
2023/06/15 02:57:38;;;;;;;5.63;5.15;;;;;;;-141.84;69.61;20545.56;4972117;28;20254;-59
2023/06/15 03:00:09;;;;;;;6.70;6.00;;;;;;;-141.84;69.64;20578.09;4990772;28;20482;-59
2023/06/15 03:02:38;;;;;;;6.00;5.50;;;;;;;-141.84;69.65;20529.28;4992013;28;20282;-59
2023/06/15 03:05:08;;;;;;;5.93;5.38;;;;;;;-141.84;69.78;20600.44;4988363;28;20188;-59
2023/06/15 03:07:36;;;;;;;6.57;5.90;;;;;;;-141.84;69.70;20600.44;4972668;28;20196;-59
2023/06/15 03:10:05;;;;;;;6.53;5.80;;;;;;;-141.84;69.13;20596.38;4960777;28;20288;-59
2023/06/15 03:12:34;;;;;;;6.55;5.95;;;;;;;-141.84;68.68;20622.81;4952712;29;20255;-60
2023/06/15 03:15:03;;;;;;;6.80;5.80;;;;;;;-141.84;68.47;20630.94;4952806;28;20232;-59
2023/06/15 03:17:32;;;;;;;7.65;6.18;;;;;;;-141.84;68.49;20616.69;4972116;28;20283;-59
2023/06/15 03:20:05;;;;;;;7.45;5.70;;;;;;;-141.84;68.17;20632.97;4972213;28;20200;-59
2023/06/15 03:22:35;;;;;;;6.70;6.07;;;;;;;-141.84;67.31;20687.84;4972194;28;20192;-58
2023/06/15 03:25:04;;;;;;;7.65;6.30;;;;;;;-141.84;67.59;20620.78;4971813;28;20207;-58
2023/06/15 03:27:32;;;;;;;7.60;6.00;;;;;;;-141.84;67.80;20671.59;4971847;28;20205;-58
2023/06/15 03:30:05;;;;;;;6.82;6.13;;;;;;;-141.84;67.55;20655.31;4971863;28;20216;-59
2023/06/15 03:32:34;;;;;;;7.90;6.22;;;;;;;-141.84;67.33;20655.31;4972139;28;20188;-59
2023/06/15 03:35:04;;;;;;;7.10;5.63;;;;;;;-141.84;67.76;20653.28;4971701;28;20207;-60
2023/06/15 03:37:32;;;;;;;6.57;5.85;;;;;;;-141.84;68.01;20622.81;4971987;28;20271;-59
2023/06/15 03:40:01;;;;;;;6.80;5.93;;;;;;;-141.84;67.71;20679.72;4971955;28;20231;-59
2023/06/15 03:42:29;;;;;;;7.65;6.20;;;;;;;-141.84;67.67;20643.13;4975856;28;20240;-59
2023/06/15 03:44:58;;;;;;;6.50;5.85;;;;;;;-141.84;67.26;20675.66;4975250;28;20286;-60
2023/06/15 03:47:27;;;;;;;7.30;5.55;;;;;;;-141.84;66.98;20695.97;4975828;28;20294;-59
2023/06/15 03:49:56;;;;;;;6.45;5.85;;;;;;;-141.84;66.73;20700.03;4975657;28;20207;-60
2023/06/15 03:52:26;;;;;;;6.75;6.05;;;;;;;-141.84;65.96;20720.38;4975751;28;20196;-59
2023/06/15 03:54:55;;;;;;;6.20;5.70;;;;;;;-141.84;65.77;20763.06;4975344;28;20224;-59
2023/06/15 03:57:23;;;;;;;6.07;5.47;;;;;;;-141.84;66.01;20687.84;4975275;28;20794;-59
2023/06/15 03:59:52;;;;;;;5.95;5.35;;;;;;;-141.84;65.92;20736.63;4991663;28;20227;-59
2023/06/15 04:02:20;;;;;;;6.95;5.93;;;;;;;-141.84;65.63;20734.59;4995069;28;20245;-59
2023/06/15 04:04:52;;;;;;;6.70;5.80;;;;;;;-141.84;65.81;20732.56;4992670;28;20207;-58
2023/06/15 04:07:22;;;;;;;6.60;5.30;;;;;;;-141.84;65.93;20763.06;4960135;28;20220;-60
2023/06/15 04:09:52;;;;;;;6.68;6.07;;;;;;;-141.84;65.72;20785.44;4975308;28;20236;-60
2023/06/15 04:12:21;;;;;;;7.90;6.25;;;;;;;-141.84;65.52;20763.06;4975341;28;20283;-60
2023/06/15 04:14:50;;;;;;;8.20;6.68;;;;;;;-141.84;64.43;20813.88;4974869;28;20251;-59
2023/06/15 04:17:19;;;;;;;8.13;6.00;;;;;;;-141.84;63.99;20830.16;4974840;28;20315;-59
2023/06/15 04:19:47;;;;;;;6.43;5.78;;;;;;;-141.84;63.37;20807.78;4975272;28;20243;-59
2023/06/15 04:22:16;;;;;;;7.03;6.32;;;;;;;-141.84;63.42;20824.06;4974843;28;20208;-58
2023/06/15 04:24:44;;;;;;;6.65;6.05;;;;;;;-141.84;62.89;20870.81;4975135;28;20314;-59
2023/06/15 04:27:18;;;;;;;7.28;6.13;;;;;;;-141.84;62.16;20866.75;4975081;28;20291;-59
2023/06/15 04:29:49;;;;;;;6.80;6.15;;;;;;;-141.84;61.53;20878.94;4975060;28;20238;-59
2023/06/15 04:32:18;;;;;;;7.55;6.22;;;;;;;-141.84;60.51;20864.72;4975079;28;20199;-59
2023/06/15 04:34:47;;;;;;;6.50;5.90;;;;;;;-141.84;59.47;20905.38;4974934;28;20287;-59
2023/06/15 04:37:16;;;;;;;7.72;6.10;;;;;;;-141.84;59.61;20964.31;4975033;28;20251;-58
2023/06/15 04:39:45;;;;;;;6.50;5.85;;;;;;;-141.84;57.98;20960.25;4974679;28;20215;-60
2023/06/15 04:42:17;;;;;;;7.35;5.68;;;;;;;-141.84;56.33;20946.03;4974674;28;20238;-59
2023/06/15 04:44:46;;;;;;;7.72;5.65;;;;;;;-141.84;55.76;20935.88;4974406;28;20232;-59
2023/06/15 04:47:15;;;;;;;6.72;5.80;;;;;;;-141.84;55.96;21015.16;4974833;28;20200;-59
2023/06/15 04:49:44;;;;;;;6.20;5.65;;;;;;;-141.84;55.21;21078.16;4974669;28;20574;-59
2023/06/15 04:52:12;;;;;;;5.85;5.25;;;;;;;-141.84;52.96;21208.28;4974228;28;20726;-59
2023/06/15 04:54:41;;;;;;;6.90;5.57;;;;;;;-141.84;52.19;21309.94;4974468;28;20628;-60
2023/06/15 04:57:09;;;;;;;8.70;5.28;;;;;;;-141.84;47.90;21586.47;4974343;28;20228;-60
2023/06/15 04:59:39;;;;;;;9.18;5.72;;;;;;;-141.84;44.36;21917.91;4974099;28;20694;-59
2023/06/15 05:02:08;;;;;;;7.40;5.10;;;;;;;-141.84;42.75;22133.44;4966719;28;20287;-59
2023/06/15 05:04:36;;;;;;;8.25;5.10;;;;;;;-141.84;41.31;22377.47;4955212;29;20211;-59
2023/06/15 05:07:05;;;;;;;5.97;5.38;;;;;;;-141.84;40.24;22450.69;4973725;28;20228;-59
2023/06/15 05:09:34;;;;;;;6.25;5.20;;;;;;;-141.84;40.48;22430.38;4974615;28;20303;-59
2023/06/15 05:12:02;;;;;;;8.95;5.82;;;;;;;-141.84;39.28;22550.34;4974189;28;20204;-59
2023/06/15 05:14:31;;;;;;;7.88;5.43;;;;;;;-141.84;39.45;22556.47;4974051;28;20204;-58
2023/06/15 05:17:03;;;;;;;8.38;5.78;;;;;;;-141.84;40.02;22572.72;4973997;28;20310;-61
2023/06/15 05:19:32;;;;;;;7.82;5.45;;;;;;;-141.84;39.28;22595.09;4973866;28;20185;-59
2023/06/15 05:22:02;;;;;;;7.95;5.38;;;;;;;-141.84;38.46;22826.97;4974086;28;20208;-59
2023/06/15 05:24:31;;;;;;;5.78;5.28;;;;;;;-141.84;37.28;22997.81;4974020;28;20207;-60
2023/06/15 05:27:01;;;;;;;6.80;5.25;;;;;;;-141.84;37.21;23010.00;4973999;28;20200;-60
2023/06/15 05:29:30;;;;;;;7.03;5.35;;;;;;;-141.84;36.74;23160.53;4973560;28;20699;-59
2023/06/15 05:32:00;;;;;;;6.97;5.25;;;;;;;-141.84;36.59;23134.09;4973604;28;20742;-58
2023/06/15 05:34:29;;;;;;;6.95;5.35;;;;;;;-141.84;37.09;22999.84;4973492;28;20205;-59
2023/06/15 05:36:57;;;;;;;6.80;4.82;;;;;;;-141.84;37.36;22814.75;4973743;28;20326;-60
2023/06/15 05:39:26;;;;;;;8.93;5.82;;;;;;;-141.84;39.32;22536.13;4973969;28;20295;-60
2023/06/15 05:41:54;;;;;;;7.80;5.75;;;;;;;-141.84;40.61;22349.00;4973531;28;20211;-60
2023/06/15 05:44:23;;;;;;;7.35;5.20;;;;;;;-141.84;42.16;22145.66;4973364;28;20270;-59
2023/06/15 05:46:52;;;;;;;6.53;5.75;;;;;;;-141.84;43.10;22005.34;4973425;28;20287;-59
2023/06/15 05:49:23;;;;;;;6.72;5.50;;;;;;;-141.84;44.54;21852.81;4973631;28;20255;-59
2023/06/15 05:51:51;;;;;;;6.80;5.75;;;;;;;-141.84;45.03;21789.78;4973250;28;20207;-58
2023/06/15 05:54:20;;;;;;;9.45;6.20;;;;;;;-141.84;45.76;21806.06;4973193;28;20498;-60
2023/06/15 05:56:48;;;;;;;8.70;5.97;;;;;;;-141.84;46.21;21808.09;4973020;28;20230;-59
2023/06/15 05:59:17;;;;;;;8.15;5.32;;;;;;;-141.84;46.71;21753.19;4958444;28;20204;-59
2023/06/15 06:02:00;;;;;;;8.43;5.28;;;;;;;-141.84;47.06;21671.84;4953806;29;20288;-59
2023/06/15 06:04:30;;;;;;;7.20;5.30;;;;;;;-141.84;47.33;21661.69;4961951;28;20562;-60
2023/06/15 06:06:59;;;;;;;8.07;5.50;;;;;;;-141.84;48.06;21572.22;4972577;28;20312;-61
2023/06/15 06:09:28;;;;;;;10.55;6.03;;;;;;;-141.84;47.88;21604.75;4972595;28;20207;-59
2023/06/15 06:11:56;;;;;;;7.53;5.68;;;;;;;-141.84;48.48;21549.84;4972725;28;20307;-60
2023/06/15 06:14:26;;;;;;;6.28;5.22;;;;;;;-141.84;48.94;21529.53;4973162;28;20208;-60
2023/06/15 06:16:55;;;;;;;10.65;6.35;;;;;;;-141.84;48.28;21572.22;4972057;28;20260;-60
2023/06/15 06:19:25;;;;;;;5.75;5.15;;;;;;;-141.84;47.88;21614.94;4972338;28;20250;-61
2023/06/15 06:21:55;;;;;;;8.38;6.10;;;;;;;-141.84;47.96;21610.84;4972497;28;20197;-60
2023/06/15 06:24:23;;;;;;;6.38;5.43;;;;;;;-141.84;48.12;21564.09;4972305;28;20704;-60
2023/06/15 06:26:52;;;;;;;5.57;5.07;;;;;;;-141.84;48.04;21578.31;4972894;28;20204;-58
2023/06/15 06:29:20;;;;;;;5.93;5.15;;;;;;;-141.84;48.34;21566.13;4972235;28;20650;-59
2023/06/15 06:31:49;;;;;;;8.60;7.05;;;;;;;-141.84;48.22;21562.06;4972067;28;20660;-59
2023/06/15 06:34:18;;;;;;;6.00;5.03;;;;;;;-141.84;48.64;21543.75;4972437;28;20204;-60
2023/06/15 06:36:47;;;;;;;8.05;5.07;;;;;;;-141.84;48.15;21555.97;4972295;28;20238;-60
2023/06/15 06:39:16;;;;;;;8.13;5.13;;;;;;;-141.84;48.38;21560.03;4970428;28;20284;-59
2023/06/15 06:41:45;;;;;;;7.05;5.75;;;;;;;-141.84;47.73;21614.94;4971795;28;20299;-60
2023/06/15 06:44:14;;;;;;;7.45;4.90;;;;;;;-141.84;47.84;21633.22;4972144;28;20722;-58
2023/06/15 06:46:43;;;;;;;6.72;5.25;;;;;;;-141.84;47.74;21623.06;4972287;28;20258;-59
2023/06/15 06:49:12;;;;;;;10.65;5.80;;;;;;;-141.84;47.18;21710.50;4972095;28;20259;-60
2023/06/15 06:51:40;;;;;;;12.43;5.30;;;;;;;-141.84;46.64;21745.06;4971974;28;20204;-61
2023/06/15 06:54:09;;;;;;;9.13;5.60;;;;;;;-141.84;46.55;21702.34;4968076;28;20208;-60
2023/06/15 06:56:39;;;;;;;9.43;6.07;;;;;;;-141.84;47.26;21680.00;4952809;29;20240;-60
2023/06/15 06:59:07;;;;;;;9.48;5.90;;;;;;;-141.84;47.47;21675.94;4952316;29;20233;-60
2023/06/15 07:01:36;;;;;;;7.28;5.82;;;;;;;-141.84;46.86;21714.56;4952530;29;20211;-60
2023/06/15 07:04:05;;;;;;;8.10;6.00;;;;;;;-141.84;46.86;21732.84;4952592;29;20236;-61
2023/06/15 07:06:34;;;;;;;7.80;5.38;;;;;;;-141.84;47.51;21688.13;4967754;28;20282;-60
2023/06/15 07:09:03;;;;;;;7.35;5.20;;;;;;;-141.84;47.47;21663.72;4971520;28;20200;-60
2023/06/15 07:11:31;;;;;;;7.40;5.75;;;;;;;-141.84;47.29;21722.69;4971627;28;20225;-60
2023/06/15 07:14:03;;;;;;;7.65;5.57;;;;;;;-141.84;47.63;21732.84;4971870;28;20210;-60
2023/06/15 07:16:32;;;;;;;8.57;5.63;;;;;;;-141.84;45.44;21761.31;4971524;28;20200;-60
2023/06/15 07:19:00;;;;;;;8.35;4.88;;;;;;;-141.84;44.52;21787.75;4971639;28;20323;-59
2023/06/15 07:21:29;;;;;;;7.10;4.85;;;;;;;-141.84;44.56;21775.56;4971135;28;20325;-60
2023/06/15 07:23:57;;;;;;;7.80;5.28;;;;;;;-141.84;44.87;21775.56;4971758;28;20310;-60
2023/06/15 07:26:26;;;;;;;6.10;4.85;;;;;;;-141.84;43.89;21826.41;4971460;28;20207;-60
2023/06/15 07:28:55;;;;;;;4.80;4.30;;;;;;;-141.84;44.19;21832.50;4969329;28;20235;-59
2023/06/15 07:31:25;;;;;;;9.68;4.03;;;;;;;-141.84;43.58;21881.28;4952481;29;20236;-59
2023/06/15 07:33:54;;;;;;;5.72;3.70;;;;;;;-141.84;42.73;21893.50;4952236;29;20676;-59
2023/06/15 07:36:23;;;;;;;5.35;3.92;;;;;;;-141.84;40.93;21883.31;4952518;29;20620;-59
2023/06/15 07:38:52;;;;;;;7.38;4.00;;;;;;;-141.84;41.25;21895.53;4954766;28;20259;-59
2023/06/15 07:41:21;;;;;;;9.57;4.35;;;;;;;-141.84;41.12;21881.28;4971691;28;20259;-60
2023/06/15 07:43:49;;;;;;;6.68;3.85;;;;;;;-141.84;39.87;21842.66;4971386;28;20271;-59
2023/06/15 07:46:18;;;;;;;5.88;3.70;;;;;;;-141.84;40.98;21863.00;4971637;28;20200;-61
2023/06/15 07:48:47;;;;;;;6.47;3.83;;;;;;;-141.84;40.67;21887.41;4971771;28;20383;-60
2023/06/15 07:51:16;;;;;;;6.57;3.85;;;;;;;-141.84;41.52;21901.63;4960511;28;20848;-60
2023/06/15 07:54:05;;;;;;;5.00;4.30;;;;;;;-141.84;41.17;21919.94;4951907;29;20292;-59
2023/06/15 07:56:33;;;;;;;4.75;4.22;;;;;;;-141.84;41.38;21899.59;4952628;29;20295;-59
2023/06/15 07:59:02;;;;;;;6.50;4.15;;;;;;;-141.84;41.46;21921.97;4951885;29;20791;-60
2023/06/15 08:01:30;;;;;;;6.93;4.10;;;;;;;-141.84;41.33;21944.34;4952187;29;20208;-59
2023/06/15 08:04:01;;;;;;;4.97;3.65;;;;;;;-141.84;41.77;21881.28;4950976;29;20241;-59
2023/06/15 08:06:30;;;;;;;6.65;4.10;;;;;;;-141.84;42.36;21899.59;4966957;28;20255;-59
2023/06/15 08:08:59;;;;;;;5.07;4.03;;;;;;;-141.84;41.67;21891.47;4971142;28;20232;-59
2023/06/15 08:11:28;;;;;;;6.55;3.88;;;;;;;-141.84;42.04;21850.78;4971653;28;20208;-60
2023/06/15 08:13:56;;;;;;;4.55;4.07;;;;;;;-141.84;42.50;21867.06;4971471;28;20300;-59
2023/06/15 08:16:25;;;;;;;5.72;4.18;;;;;;;-141.84;41.29;21942.31;4971546;28;20200;-58
2023/06/15 08:18:53;;;;;;;6.68;3.83;;;;;;;-141.84;41.53;21897.56;4971278;28;20253;-60
2023/06/15 08:21:24;;;;;;;5.60;4.38;;;;;;;-141.84;41.11;21875.19;4971453;28;20200;-58
2023/06/15 08:23:53;;;;;;;7.40;4.05;;;;;;;-141.84;41.07;21848.75;4971211;28;20230;-60
2023/06/15 08:26:22;;;;;;;6.10;3.75;;;;;;;-141.84;41.08;21877.22;4971996;28;20298;-59
2023/06/15 08:28:51;;;;;;;4.30;3.90;;;;;;;-141.84;41.17;21903.66;4974972;28;20196;-60
2023/06/15 08:31:26;;;;;;;6.82;3.75;;;;;;;-141.84;41.48;21869.09;4974703;28;20537;-59
2023/06/15 08:33:55;;;;;;;7.22;3.78;;;;;;;-141.84;41.79;21873.16;4974815;28;20211;-59
2023/06/15 08:36:25;;;;;;;5.45;4.00;;;;;;;-141.84;42.39;21875.19;4975091;28;20236;-59
2023/06/15 08:38:53;;;;;;;4.53;4.13;;;;;;;-141.84;42.46;21856.91;4974232;28;20619;-59
2023/06/15 08:41:26;;;;;;;7.25;4.47;;;;;;;-141.84;42.80;21836.56;4974894;28;20204;-59
2023/06/15 08:43:56;;;;;;;7.63;4.00;;;;;;;-141.84;42.85;21875.19;4974269;28;20283;-60
2023/06/15 08:46:25;;;;;;;6.07;3.75;;;;;;;-141.84;42.84;21883.31;4972654;28;20211;-59
2023/06/15 08:48:55;;;;;;;5.80;4.20;;;;;;;-141.84;42.69;21924.00;4954962;29;20690;-59
2023/06/15 08:51:25;;;;;;;5.38;4.15;;;;;;;-141.84;42.92;21899.59;4955596;29;20219;-68
2023/06/15 08:53:55;;;;;;;9.95;4.60;;;;;;;-141.84;43.12;21919.94;4954834;29;20707;-66
2023/06/15 08:56:26;;;;;;;6.18;4.28;;;;;;;-141.84;43.14;21875.19;4955211;29;20538;-67
2023/06/15 08:58:55;;;;;;;7.13;4.50;;;;;;;-141.84;43.16;21917.91;4955085;29;20221;-68
2023/06/15 09:01:25;;;;;;;5.57;4.00;;;;;;;-141.84;42.47;21903.66;4954894;29;20303;-66
2023/06/15 09:03:55;;;;;;;6.07;3.80;;;;;;;-141.84;41.87;21911.78;4955097;29;20240;-67
2023/06/15 09:06:25;;;;;;;7.35;4.28;;;;;;;-141.84;41.15;21887.41;4968866;28;20193;-67
2023/06/15 09:08:54;;;;;;;4.35;3.80;;;;;;;-141.84;41.42;21921.97;4973680;28;20214;-68
2023/06/15 09:11:24;;;;;;;5.97;4.20;;;;;;;-141.84;41.91;21944.34;4974136;28;20261;-67
2023/06/15 09:13:54;;;;;;;6.10;4.22;;;;;;;-141.84;42.10;21964.66;4974209;28;20263;-65
2023/06/15 09:16:23;;;;;;;8.57;4.50;;;;;;;-141.84;42.23;21952.47;4973777;28;20215;-67
2023/06/15 09:18:52;;;;;;;5.45;3.65;;;;;;;-141.84;41.87;21966.69;4970365;28;20260;-70
2023/06/15 09:21:22;;;;;;;4.18;3.55;;;;;;;-141.84;41.60;21985.00;4972474;28;20204;-71
2023/06/15 09:23:52;;;;;;;5.32;3.80;;;;;;;-141.84;40.35;21991.09;4973415;28;20237;-63
2023/06/15 09:26:24;;;;;;;7.18;4.30;;;;;;;-141.84;41.03;22015.50;4973128;28;20200;-63
2023/06/15 09:28:56;;;;;;;7.03;3.90;;;;;;;-141.84;40.84;22046.00;4973022;28;20196;-62
2023/06/15 09:31:32;;;;;;;6.53;3.97;;;;;;;-141.84;40.35;22031.78;4973518;28;20242;-65
2023/06/15 09:34:05;;;;;;;7.22;4.10;;;;;;;-141.84;40.82;22066.34;4973283;28;20207;-62
2023/06/15 09:36:36;;;;;;;7.32;4.30;;;;;;;-141.84;40.95;22078.53;4973710;28;20476;-62
2023/06/15 09:39:09;;;;;;;5.13;4.03;;;;;;;-141.84;40.79;22050.06;4972047;28;20255;-62
2023/06/15 09:41:51;;;;;;;7.18;4.60;;;;;;;-141.84;41.06;22084.66;4954357;29;20197;-61
2023/06/15 09:44:21;;;;;;;5.82;4.20;;;;;;;-141.84;39.21;22117.19;4956476;28;20248;-62
2023/06/15 09:46:51;;;;;;;6.85;4.47;;;;;;;-141.84;39.31;22113.13;4986701;28;20265;-62
2023/06/15 09:49:25;;;;;;;5.78;4.07;;;;;;;-141.84;39.45;22141.59;4992674;28;20184;-62
2023/06/15 09:51:54;;;;;;;6.60;4.18;;;;;;;-141.84;39.72;22155.81;4988760;28;20196;-63
2023/06/15 09:54:28;;;;;;;5.85;4.43;;;;;;;-141.84;39.46;22204.63;4972833;28;20735;-65
2023/06/15 09:56:57;;;;;;;5.07;4.53;;;;;;;-141.84;39.45;22210.72;4973384;28;20192;-65
2023/06/15 09:59:25;;;;;;;4.60;3.92;;;;;;;-141.84;38.03;22259.53;4972955;28;20224;-64
2023/06/15 10:01:57;;;;;;;6.30;4.07;;;;;;;-141.84;37.02;22257.50;4973132;28;20236;-65
2023/06/15 10:04:29;;;;;;;5.70;3.90;;;;;;;-141.84;37.74;22267.66;4973131;28;20279;-64
2023/06/15 10:07:05;;;;;;;7.40;4.20;;;;;;;-141.84;37.01;22298.16;4972355;28;20219;-64
2023/06/15 10:09:40;;;;;;;7.07;4.03;;;;;;;-141.84;37.44;22300.22;4972468;28;20695;-65
2023/06/15 10:12:13;;;;;;;7.05;4.05;;;;;;;-141.84;37.34;22371.38;4973100;28;20271;-64
2023/06/15 10:14:48;;;;;;;7.03;3.97;;;;;;;-141.84;37.85;22285.97;4972967;28;20226;-65
2023/06/15 10:17:21;;;;;;;4.50;3.67;;;;;;;-141.84;37.04;22231.06;4972467;28;20590;-65
2023/06/15 10:19:53;;;;;;;6.43;4.00;;;;;;;-141.84;37.23;22222.94;4970332;28;20243;-65
2023/06/15 10:22:24;;;;;;;3.83;3.53;;;;;;;-141.84;36.85;22249.38;4971616;28;20291;-64
2023/06/15 10:24:55;;;;;;;3.78;3.47;;;;;;;-141.84;37.05;22281.91;4971941;28;20208;-65
2023/06/15 10:27:23;;;;;;;6.32;4.50;;;;;;;-141.84;36.80;22322.56;4973036;28;20299;-66
2023/06/15 10:30:04;;;;;;;6.88;3.90;;;;;;;-141.84;36.22;22399.84;4971747;28;20699;-65
2023/06/15 10:32:40;;;;;;;5.70;3.88;;;;;;;-141.84;36.19;22475.09;4972033;28;20294;-64
2023/06/15 10:35:15;;;;;;;4.72;4.13;;;;;;;-141.84;35.57;22521.88;4971624;28;20204;-65
2023/06/15 10:37:51;;;;;;;6.30;4.10;;;;;;;-141.84;35.21;22517.81;4972660;28;20203;-63
2023/06/15 10:40:28;;;;;;;4.00;3.60;;;;;;;-141.84;35.51;22391.72;4972150;28;20207;-65
2023/06/15 10:42:58;;;;;;;7.05;3.50;;;;;;;-141.84;34.87;22346.97;4972353;28;20192;-65
2023/06/15 10:45:31;;;;;;;5.22;3.53;;;;;;;-141.84;35.01;22322.56;4977237;28;20231;-64
2023/06/15 10:48:01;;;;;;;7.45;3.92;;;;;;;-141.84;35.26;22298.16;4991835;28;20187;-64
2023/06/15 10:50:39;;;;;;;4.93;3.60;;;;;;;-141.84;35.41;22391.72;4990967;28;20298;-65
2023/06/15 10:53:22;;;;;;;4.30;3.90;;;;;;;-141.84;34.80;22489.34;4977686;28;20282;-65
2023/06/15 10:55:55;;;;;;;4.28;3.75;;;;;;;-141.84;34.63;22611.38;4972274;28;20646;-65
2023/06/15 10:58:26;;;;;;;6.95;3.97;;;;;;;-141.84;33.96;22700.84;4972678;28;20539;-64
2023/06/15 11:01:10;;;;;;;4.05;3.60;;;;;;;-141.84;33.31;22735.44;4971780;28;20211;-65
2023/06/15 11:03:41;;;;;;;5.82;3.58;;;;;;;-141.84;33.26;22613.41;4971547;28;20196;-65
2023/06/15 11:06:16;;;;;;;3.97;3.58;;;;;;;-141.84;33.92;22509.69;4971023;28;20266;-64
2023/06/15 11:08:47;;;;;;;6.25;3.60;;;;;;;-141.84;33.88;22530.00;4971997;28;20207;-65
2023/06/15 11:11:22;;;;;;;5.38;3.53;;;;;;;-141.84;33.67;22564.59;4960439;28;20707;-64
2023/06/15 11:14:02;;;;;;;4.05;3.63;;;;;;;-141.84;33.45;22550.34;4971209;28;20227;-64
2023/06/15 11:16:32;;;;;;;3.78;3.47;;;;;;;-141.84;33.16;22595.09;4971211;28;20304;-61
2023/06/15 11:19:25;;;;;;;5.93;3.42;;;;;;;-141.84;32.99;22609.34;4971273;28;20744;-66
2023/06/15 11:22:01;;;;;;;4.55;3.38;;;;;;;-141.84;33.30;22595.09;4971789;28;20208;-65
2023/06/15 11:24:37;;;;;;;4.45;3.65;;;;;;;-141.84;33.52;22576.78;4971830;28;20291;-64
2023/06/15 11:27:09;;;;;;;4.07;3.63;;;;;;;-141.84;33.12;22621.53;4971494;28;20195;-65
2023/06/15 11:29:40;;;;;;;5.05;3.78;;;;;;;-141.84;33.07;22613.41;4971957;28;20271;-65
2023/06/15 11:32:11;;;;;;;5.30;3.72;;;;;;;-141.84;32.66;22603.22;4972095;28;20188;-68